Time;durP1;ratioP1;P1;durP2;ratioP2;P2;SDS_P1;SDS_P2;PMS_P1;PMS_P2;Temp;Humidity;BMP_temperature;BMP_pressure;BME280_temperature;BME280_humidity;BME280_pressure;Samples;Min_cycle;Max_cycle;Signal;HPM_P1;HPM_P2
2022/12/16 00:00:37;;;;;;;62.73;31.90;;;;;;;4.70;60.17;97508.31;6948439;28;20226;-76
2022/12/16 00:03:59;;;;;;;55.67;31.27;;;;;;;4.75;60.66;97529.06;6948716;28;20696;-76
2022/12/16 00:07:20;;;;;;;56.03;31.67;;;;;;;4.88;60.28;97532.63;6947926;28;20806;-76
2022/12/16 00:10:52;;;;;;;59.97;32.57;;;;;;;4.64;59.86;97526.97;6948264;28;20318;-76
2022/12/16 00:14:15;;;;;;;54.93;30.47;;;;;;;4.23;61.01;97542.16;6948758;28;20624;-76
2022/12/16 00:17:38;;;;;;;63.93;34.10;;;;;;;4.33;61.16;97535.47;6948567;28;20241;-76
2022/12/16 00:21:00;;;;;;;62.70;32.53;;;;;;;4.34;60.84;97533.59;6948234;28;20228;-76
2022/12/16 00:24:21;;;;;;;61.87;33.13;;;;;;;4.37;61.24;97534.03;6948249;28;20397;-76
2022/12/16 00:27:43;;;;;;;60.50;33.80;;;;;;;4.48;60.66;97538.00;6948010;28;20337;-76
2022/12/16 00:31:06;;;;;;;58.23;32.40;;;;;;;4.48;60.96;97544.16;6948172;28;20732;-76
2022/12/16 00:34:27;;;;;;;56.77;32.47;;;;;;;4.32;60.85;97533.78;6947814;28;20207;-76
2022/12/16 00:37:49;;;;;;;55.83;31.07;;;;;;;4.61;60.28;97524.72;6947363;28;20236;-76
2022/12/16 00:41:10;;;;;;;62.83;34.47;;;;;;;4.53;59.78;97519.53;6948287;28;20693;-76
2022/12/16 00:44:32;;;;;;;60.60;33.23;;;;;;;4.56;60.66;97536.00;6947732;28;20826;-76
2022/12/16 00:47:55;;;;;;;59.47;31.73;;;;;;;4.74;60.37;97536.28;6947369;28;20211;-76
2022/12/16 00:51:16;;;;;;;55.37;32.97;;;;;;;4.60;60.09;97539.91;6947857;28;20301;-74
2022/12/16 00:54:38;;;;;;;66.00;33.40;;;;;;;4.62;60.89;97547.72;6947774;28;20345;-76
2022/12/16 00:57:59;;;;;;;61.93;34.23;;;;;;;4.64;60.86;97546.50;6947733;28;20274;-76
2022/12/16 01:01:21;;;;;;;62.70;34.93;;;;;;;4.47;60.50;97536.34;6947261;28;20790;-76
2022/12/16 01:04:44;;;;;;;61.67;32.93;;;;;;;4.72;60.06;97554.31;6946992;28;20227;-76
2022/12/16 01:08:06;;;;;;;67.57;34.10;;;;;;;4.51;60.61;97549.09;6947227;28;20619;-76
2022/12/16 01:11:27;;;;;;;62.50;34.43;;;;;;;4.60;60.67;97547.09;6947384;28;20280;-79
2022/12/16 01:14:49;;;;;;;60.87;35.33;;;;;;;4.63;60.72;97563.53;6947361;28;20814;-76
2022/12/16 01:18:10;;;;;;;60.33;34.20;;;;;;;4.60;60.72;97571.13;6946535;28;20353;-76
2022/12/16 01:21:33;;;;;;;51.77;31.83;;;;;;;4.29;60.77;97581.38;6946879;28;20211;-77
2022/12/16 01:24:55;;;;;;;56.77;33.73;;;;;;;4.26;61.14;97587.94;6946631;28;20340;-76
2022/12/16 01:28:16;;;;;;;60.33;33.77;;;;;;;4.39;60.41;97569.34;6946388;28;20321;-77
2022/12/16 01:31:38;;;;;;;51.80;31.63;;;;;;;4.39;60.13;97566.69;6946507;28;20265;-76
2022/12/16 01:34:59;;;;;;;52.40;29.53;;;;;;;3.79;61.13;97529.13;6946330;28;20293;-76
2022/12/16 01:38:22;;;;;;;53.00;30.87;;;;;;;4.30;60.48;97578.53;6946434;28;20222;-76
2022/12/16 01:41:43;;;;;;;52.20;30.67;;;;;;;4.49;59.47;97579.69;6946572;28;20822;-76
2022/12/16 01:45:29;;;;;;;58.60;30.33;;;;;;;4.42;59.66;97592.97;6946275;28;20305;-77
2022/12/16 01:48:52;;;;;;;57.87;32.27;;;;;;;4.40;59.59;97591.50;6946343;28;20254;-77
2022/12/16 01:52:17;;;;;;;63.80;35.33;;;;;;;4.20;60.07;97603.91;6946103;28;20635;-76
2022/12/16 01:55:43;;;;;;;51.47;31.27;;;;;;;4.16;60.97;97608.81;6945751;28;20699;-76
2022/12/16 01:59:05;;;;;;;57.50;31.73;;;;;;;4.50;60.44;97598.16;6945988;28;20769;-76
2022/12/16 02:02:27;;;;;;;60.07;31.77;;;;;;;4.33;60.18;97609.31;6946255;28;20592;-76
2022/12/16 02:05:49;;;;;;;59.03;33.23;;;;;;;4.47;59.63;97625.22;6945780;28;20348;-76
2022/12/16 02:09:12;;;;;;;66.13;34.03;;;;;;;4.27;59.96;97618.09;6945616;28;20227;-76
2022/12/16 02:12:40;;;;;;;53.17;32.00;;;;;;;3.72;60.78;97615.41;6945801;28;20298;-76
2022/12/16 02:16:06;;;;;;;60.50;32.80;;;;;;;4.09;60.73;97618.59;6945561;28;20286;-76
2022/12/16 02:19:44;;;;;;;58.67;33.07;;;;;;;3.93;60.74;97626.88;6945586;28;20227;-77
2022/12/16 02:23:21;;;;;;;64.83;33.53;;;;;;;4.18;61.33;97628.09;6945751;28;20345;-76
2022/12/16 02:27:11;;;;;;;54.77;32.33;;;;;;;3.78;61.57;97630.63;6945560;28;20324;-76
2022/12/16 02:30:44;;;;;;;56.87;31.07;;;;;;;3.65;61.65;97614.53;6945346;28;20296;-77
2022/12/16 02:34:14;;;;;;;56.17;31.60;;;;;;;3.97;61.24;97617.47;6945575;28;20191;-76
2022/12/16 02:37:39;;;;;;;55.60;31.17;;;;;;;4.18;60.29;97620.09;6945545;28;20221;-76
2022/12/16 02:41:02;;;;;;;64.10;30.13;;;;;;;4.07;60.95;97611.81;6945652;28;20326;-76
2022/12/16 02:44:26;;;;;;;56.03;30.57;;;;;;;3.96;60.81;97631.81;6947518;28;20714;-76
2022/12/16 02:47:49;;;;;;;57.73;31.67;;;;;;;3.80;60.98;97633.94;6948076;28;20297;-77
2022/12/16 02:51:11;;;;;;;60.83;33.40;;;;;;;3.99;60.41;97626.09;6947649;28;20234;-77
2022/12/16 02:54:32;;;;;;;56.97;32.90;;;;;;;4.09;59.92;97631.09;6946373;28;20629;-76
2022/12/16 02:58:09;;;;;;;58.47;33.27;;;;;;;4.13;60.02;97627.84;6945121;28;20770;-77
2022/12/16 03:01:35;;;;;;;59.83;33.63;;;;;;;4.27;60.03;97636.78;6945252;28;20222;-76
2022/12/16 03:05:03;;;;;;;63.70;34.70;;;;;;;3.75;60.35;97641.66;6945406;28;20261;-76
2022/12/16 03:08:28;;;;;;;66.63;34.13;;;;;;;3.71;60.83;97619.09;6945515;28;20226;-77
2022/12/16 03:11:51;;;;;;;56.13;32.33;;;;;;;3.99;60.60;97633.25;6945540;28;20608;-77
2022/12/16 03:15:15;;;;;;;60.37;33.73;;;;;;;4.09;59.83;97634.59;6945349;28;20298;-76
2022/12/16 03:18:38;;;;;;;60.00;31.77;;;;;;;3.55;60.78;97648.66;6944932;28;20227;-77
2022/12/16 03:22:04;;;;;;;62.70;34.30;;;;;;;3.94;60.83;97659.69;6947099;28;20354;-79
2022/12/16 03:25:27;;;;;;;63.63;34.90;;;;;;;3.53;61.91;97650.66;6948314;28;20676;-78
2022/12/16 03:28:51;;;;;;;64.33;32.90;;;;;;;3.63;61.17;97649.34;6948510;28;20223;-79
2022/12/16 03:32:16;;;;;;;63.07;34.83;;;;;;;4.04;60.22;97653.03;6948352;28;20214;-78
2022/12/16 03:35:41;;;;;;;59.50;34.57;;;;;;;3.57;60.90;97650.09;6948783;28;20203;-78
2022/12/16 03:39:05;;;;;;;60.33;31.90;;;;;;;3.46;61.03;97639.94;6949126;28;20223;-80
2022/12/16 03:42:27;;;;;;;57.47;32.63;;;;;;;3.61;60.78;97664.69;6953263;28;20203;-79
2022/12/16 03:45:51;;;;;;;56.40;33.37;;;;;;;3.65;61.26;97663.31;6954084;28;20211;-78
2022/12/16 03:49:13;;;;;;;54.07;30.77;;;;;;;3.78;60.44;97679.41;6953499;28;20316;-78
2022/12/16 03:52:34;;;;;;;56.23;33.13;;;;;;;3.90;60.61;97680.56;6953293;28;20312;-78
2022/12/16 03:55:57;;;;;;;65.33;35.03;;;;;;;3.70;60.33;97679.56;6953092;28;20249;-79
2022/12/16 03:59:19;;;;;;;55.63;34.30;;;;;;;3.92;60.34;97691.03;6953227;28;20706;-78
2022/12/16 04:02:40;;;;;;;59.93;33.33;;;;;;;4.03;60.38;97686.03;6952704;28;20766;-78
2022/12/16 04:06:02;;;;;;;55.20;31.50;;;;;;;3.69;60.15;97661.91;6953612;28;20293;-79
2022/12/16 04:09:24;;;;;;;59.20;32.73;;;;;;;4.15;59.89;97699.66;6952452;28;20255;-78
2022/12/16 04:24:22;;;;;;;50.23;29.90;;;;;;;3.80;60.70;97703.22;6875470;28;20232;-79
2022/12/16 04:27:45;;;;;;;47.23;28.20;;;;;;;3.58;60.59;97712.19;6951296;28;20207;-80
2022/12/16 04:31:08;;;;;;;48.47;28.80;;;;;;;3.58;60.68;97718.38;6951705;28;20233;-78
2022/12/16 04:34:29;;;;;;;47.80;28.50;;;;;;;3.87;60.31;97710.28;6950851;28;20206;-79
